Wetterdaten: Woche 26.06.06 - 02.07.06 (KW26)
Datum Zeit Temperatur Luftfeuchte Luftdruck Windrichtung Wind
26.06.2006 00:00 18,5 C 72 % 1016 hPa W 12,5 km/h (3 Bft)
26.06.2006 01:00 17,5 C 82 % 1016 hPa S-SW 5,2 km/h (1 Bft)
26.06.2006 02:00 16,9 C 84 % 1016 hPa S-SW 7,7 km/h (2 Bft)
26.06.2006 03:00 16,5 C 91 % 1016 hPa S-SW 13,0 km/h (3 Bft)
26.06.2006 04:00 16,6 C 82 % 1015 hPa S-SW 8,5 km/h (2 Bft)
26.06.2006 05:00 16,6 C 80 % 1015 hPa S 7,3 km/h (2 Bft)
26.06.2006 06:00 16,5 C 82 % 1016 hPa O 2,9 km/h (1 Bft)
26.06.2006 07:00 17,8 C 76 % 1016 hPa W-SW 6,9 km/h (2 Bft)
26.06.2006 08:00 19,4 C 68 % 1017 hPa W 8,5 km/h (2 Bft)
26.06.2006 09:00 20,3 C 64 % 1017 hPa W 9,2 km/h (2 Bft)
26.06.2006 10:00 21,2 C 61 % 1017 hPa W-SW 11,4 km/h (2 Bft)
26.06.2006 11:00 22,7 C 52 % 1017 hPa S-SW 12,5 km/h (3 Bft)
26.06.2006 12:00 24,1 C 47 % 1017 hPa S 11,8 km/h (2 Bft)
26.06.2006 13:00 24,9 C 46 % 1017 hPa S-SW 11,4 km/h (2 Bft)
26.06.2006 14:00 25,7 C 44 % 1017 hPa W 8,6 km/h (2 Bft)
26.06.2006 15:00 25,4 C 44 % 1017 hPa W 5,6 km/h (1 Bft)
26.06.2006 16:00 27,4 C 38 % 1017 hPa S 11,0 km/h (2 Bft)
26.06.2006 17:00 27,5 C 36 % 1017 hPa S-SW 14,3 km/h (3 Bft)
26.06.2006 18:00 27,1 C 38 % 1017 hPa S-SW 13,2 km/h (3 Bft)
26.06.2006 19:00 25,5 C 43 % 1017 hPa W-SW 7,6 km/h (2 Bft)
26.06.2006 20:00 24,0 C 48 % 1018 hPa W-SW 6,8 km/h (2 Bft)
26.06.2006 21:00 23,8 C 49 % 1018 hPa W-SW 7,4 km/h (2 Bft)
26.06.2006 22:00 23,8 C 49 % 1019 hPa S-SW 2,7 km/h (1 Bft)
26.06.2006 23:00 23,8 C 49 % 1019 hPa N 0,0 km/h (0 Bft)
27.06.2006 00:00 23,8 C 49 % 1019 hPa N 0,0 km/h (0 Bft)
27.06.2006 01:00 23,8 C 49 % 1019 hPa N 0,0 km/h (0 Bft)
27.06.2006 02:00 23,8 C 49 % 1019 hPa N 0,0 km/h (0 Bft)
27.06.2006 03:00 23,8 C 49 % 1019 hPa N 0,0 km/h (0 Bft)
27.06.2006 04:00 23,8 C 49 % 1018 hPa N 0,0 km/h (0 Bft)
27.06.2006 05:00 23,8 C 49 % 1018 hPa N-NW 1,4 km/h (1 Bft)
27.06.2006 06:00 23,8 C 49 % 1018 hPa N 0,0 km/h (0 Bft)
27.06.2006 07:00 23,8 C 49 % 1018 hPa NW 9,4 km/h (2 Bft)
27.06.2006 08:00 23,8 C 49 % 1018 hPa N 4,3 km/h (1 Bft)
27.06.2006 09:00 23,8 C 49 % 1018 hPa N-NO 8,3 km/h (2 Bft)
27.06.2006 10:00 23,8 C 49 % 1018 hPa O 10,4 km/h (2 Bft)
27.06.2006 11:00 23,8 C 49 % 1019 hPa W 11,0 km/h (2 Bft)
27.06.2006 12:00 23,8 C 49 % 1019 hPa W 11,9 km/h (2 Bft)
27.06.2006 13:00 23,8 C 49 % 1020 hPa W 19,0 km/h (3 Bft)
27.06.2006 14:00 23,8 C 49 % 1018 hPa SW 13,7 km/h (3 Bft)
27.06.2006 15:00 23,8 C 49 % 1018 hPa S-SW 21,1 km/h (4 Bft)
27.06.2006 16:00 23,8 C 49 % 1018 hPa W 14,1 km/h (3 Bft)
27.06.2006 17:00 23,8 C 49 % 1017 hPa W-SW 12,1 km/h (2 Bft)
27.06.2006 18:00 23,8 C 49 % 1017 hPa S-SW 11,5 km/h (2 Bft)
27.06.2006 19:00 23,8 C 49 % 1018 hPa N 5,5 km/h (1 Bft)
27.06.2006 20:00 23,8 C 49 % 1018 hPa NW 1,0 km/h (0 Bft)
27.06.2006 21:00 23,8 C 49 % 1018 hPa N-NW 3,0 km/h (1 Bft)
27.06.2006 22:00 23,8 C 49 % 1018 hPa N 12,2 km/h (2 Bft)
27.06.2006 23:00 21,8 C 63 % 1018 hPa N 3,6 km/h (1 Bft)
28.06.2006 00:00 20,0 C 74 % 1019 hPa W-NW 0,3 km/h (0 Bft)
28.06.2006 01:00 20,0 C 74 % 1019 hPa N-NW 0,3 km/h (0 Bft)
28.06.2006 02:00 20,0 C 74 % 1018 hPa W-NW 0,4 km/h (0 Bft)
28.06.2006 03:00 20,0 C 74 % 1018 hPa S 3,3 km/h (1 Bft)
28.06.2006 04:00 20,0 C 74 % 1018 hPa W-SW 12,3 km/h (3 Bft)
28.06.2006 05:00 20,0 C 74 % 1018 hPa O-SO 0,7 km/h (0 Bft)
28.06.2006 06:00 20,0 C 74 % 1018 hPa W 2,6 km/h (1 Bft)
28.06.2006 07:00 20,0 C 74 % 1018 hPa N 0,0 km/h (0 Bft)
28.06.2006 08:00 20,0 C 74 % 1018 hPa O-SO 0,6 km/h (0 Bft)
28.06.2006 09:00 20,0 C 74 % 1018 hPa SO 4,8 km/h (1 Bft)
28.06.2006 10:00 20,0 C 74 % 1018 hPa N-NO 1,9 km/h (1 Bft)
28.06.2006 11:00 20,0 C 74 % 1019 hPa S 3,9 km/h (1 Bft)
28.06.2006 12:00 20,0 C 74 % 1019 hPa S 4,6 km/h (1 Bft)
28.06.2006 13:00 20,0 C 74 % 1019 hPa S 11,8 km/h (2 Bft)
28.06.2006 14:00 20,0 C 74 % 1019 hPa O 2,6 km/h (1 Bft)
28.06.2006 15:00 20,0 C 74 % 1019 hPa O 5,8 km/h (2 Bft)
28.06.2006 16:00 20,0 C 74 % 1018 hPa O-SO 8,0 km/h (2 Bft)
28.06.2006 17:00 20,0 C 74 % 1018 hPa O 7,8 km/h (2 Bft)
28.06.2006 18:00 22,5 C 59 % 1017 hPa N-NO 8,4 km/h (2 Bft)
28.06.2006 19:00 24,1 C 49 % 1017 hPa N-NO 12,0 km/h (2 Bft)
28.06.2006 20:00 21,9 C 59 % 1018 hPa N 10,4 km/h (2 Bft)
28.06.2006 21:00 20,3 C 68 % 1018 hPa N 7,3 km/h (2 Bft)
28.06.2006 22:00 19,1 C 77 % 1019 hPa N 0,1 km/h (0 Bft)
28.06.2006 23:00 18,6 C 80 % 1019 hPa NW 1,9 km/h (1 Bft)
29.06.2006 00:00 18,6 C 80 % 1019 hPa N-NW 7,4 km/h (2 Bft)
29.06.2006 01:00 18,6 C 80 % 1019 hPa NW 6,7 km/h (2 Bft)
29.06.2006 02:00 18,6 C 80 % 1019 hPa O-SO 8,9 km/h (2 Bft)
29.06.2006 03:00 18,6 C 80 % 1018 hPa W-SW 3,8 km/h (1 Bft)
29.06.2006 04:00 18,6 C 80 % 1018 hPa NW 4,0 km/h (1 Bft)
29.06.2006 05:00 18,6 C 80 % 1018 hPa W 0,9 km/h (0 Bft)
29.06.2006 06:00 18,6 C 80 % 1018 hPa S 0,2 km/h (0 Bft)
29.06.2006 07:00 18,6 C 80 % 1018 hPa N 0,9 km/h (0 Bft)
29.06.2006 08:00 18,6 C 80 % 1018 hPa NW 3,0 km/h (1 Bft)
29.06.2006 09:00 18,6 C 80 % 1019 hPa N 7,1 km/h (2 Bft)
29.06.2006 10:00 18,6 C 80 % 1019 hPa N 4,4 km/h (1 Bft)
29.06.2006 11:00 18,6 C 80 % 1019 hPa N-NO 6,1 km/h (2 Bft)
29.06.2006 12:00 18,6 C 80 % 1019 hPa N-NW 4,1 km/h (1 Bft)
29.06.2006 13:00 18,6 C 80 % 1019 hPa NO 1,7 km/h (1 Bft)
29.06.2006 14:00 18,7 C 80 % 1019 hPa O 5,4 km/h (1 Bft)
29.06.2006 15:00 22,0 C 62 % 1019 hPa S-SW 9,1 km/h (2 Bft)
29.06.2006 16:00 20,4 C 79 % 1019 hPa N 4,0 km/h (1 Bft)
29.06.2006 17:00 21,3 C 81 % 1019 hPa NW 3,5 km/h (1 Bft)
29.06.2006 18:00 19,6 C 83 % 1019 hPa N 5,7 km/h (1 Bft)
29.06.2006 19:00 19,1 C 75 % 1020 hPa NW 4,0 km/h (1 Bft)
29.06.2006 20:00 18,1 C 81 % 1020 hPa W-NW 3,3 km/h (1 Bft)
29.06.2006 21:00 17,0 C 77 % 1020 hPa N 7,4 km/h (2 Bft)
29.06.2006 22:00 15,9 C 80 % 1021 hPa W 4,1 km/h (1 Bft)
29.06.2006 23:00 15,3 C 86 % 1022 hPa NW 1,7 km/h (1 Bft)
30.06.2006 00:00 14,7 C 90 % 1022 hPa W 0,5 km/h (0 Bft)
30.06.2006 01:00 14,7 C 90 % 1022 hPa W 1,0 km/h (0 Bft)
30.06.2006 02:00 14,7 C 90 % 1022 hPa N 0,0 km/h (0 Bft)
30.06.2006 03:00 14,7 C 90 % 1022 hPa N 0,2 km/h (0 Bft)
30.06.2006 04:00 14,7 C 90 % 1022 hPa N 0,0 km/h (0 Bft)
30.06.2006 05:00 14,7 C 90 % 1022 hPa N 0,1 km/h (0 Bft)
30.06.2006 06:00 14,7 C 90 % 1022 hPa NW 0,5 km/h (0 Bft)
30.06.2006 07:00 14,7 C 90 % 1023 hPa N 3,6 km/h (1 Bft)
30.06.2006 08:00 14,7 C 90 % 1023 hPa N-NO 3,1 km/h (1 Bft)
30.06.2006 09:00 14,7 C 90 % 1023 hPa N-NO 7,1 km/h (2 Bft)
30.06.2006 10:00 14,7 C 90 % 1024 hPa N 9,9 km/h (2 Bft)
30.06.2006 11:00 14,7 C 90 % 1024 hPa N 10,9 km/h (2 Bft)
30.06.2006 12:00 14,7 C 90 % 1024 hPa N-NO 13,7 km/h (3 Bft)
30.06.2006 13:00 19,5 C 69 % 1024 hPa N-NO 13,4 km/h (3 Bft)
30.06.2006 14:00 23,5 C 49 % 1023 hPa N-NO 15,2 km/h (3 Bft)
30.06.2006 15:00 24,5 C 42 % 1023 hPa N-NO 14,9 km/h (3 Bft)
30.06.2006 16:00 25,3 C 38 % 1023 hPa N-NO 13,8 km/h (3 Bft)
30.06.2006 17:00 25,6 C 36 % 1023 hPa N-NO 14,3 km/h (3 Bft)
30.06.2006 18:00 24,8 C 38 % 1023 hPa O-NO 15,2 km/h (3 Bft)
30.06.2006 19:00 23,5 C 43 % 1023 hPa N-NO 13,7 km/h (3 Bft)
30.06.2006 20:00 22,0 C 46 % 1023 hPa N-NO 6,9 km/h (2 Bft)
30.06.2006 21:00 20,1 C 55 % 1023 hPa N-NO 1,9 km/h (1 Bft)
30.06.2006 22:00 18,5 C 64 % 1024 hPa NO 0,9 km/h (0 Bft)
30.06.2006 23:00 16,7 C 75 % 1024 hPa N 0,0 km/h (0 Bft)
01.07.2006 00:00 15,6 C 83 % 1024 hPa N 0,0 km/h (0 Bft)
01.07.2006 01:00 15,0 C 86 % 1024 hPa W-NW 0,7 km/h (0 Bft)
01.07.2006 02:00 14,6 C 88 % 1024 hPa W-NW 3,7 km/h (1 Bft)
01.07.2006 03:00 14,5 C 88 % 1023 hPa NW 5,4 km/h (1 Bft)
01.07.2006 04:00 14,5 C 88 % 1024 hPa NW 5,0 km/h (1 Bft)
01.07.2006 05:00 14,5 C 88 % 1024 hPa N 5,0 km/h (1 Bft)
01.07.2006 06:00 14,5 C 88 % 1024 hPa N 12,0 km/h (2 Bft)
01.07.2006 07:00 14,5 C 88 % 1024 hPa N 11,0 km/h (2 Bft)
01.07.2006 08:00 14,5 C 88 % 1024 hPa N 11,9 km/h (2 Bft)
01.07.2006 09:00 14,5 C 88 % 1024 hPa N-NO 13,6 km/h (3 Bft)
01.07.2006 10:00 14,5 C 88 % 1024 hPa N-NO 16,0 km/h (3 Bft)
01.07.2006 11:00 14,5 C 88 % 1023 hPa NO 18,9 km/h (3 Bft)
01.07.2006 12:00 14,5 C 88 % 1023 hPa NO 23,5 km/h (4 Bft)
01.07.2006 13:00 14,5 C 88 % 1023 hPa O-NO 24,2 km/h (4 Bft)
01.07.2006 14:00 14,5 C 88 % 1023 hPa O-NO 24,6 km/h (4 Bft)
01.07.2006 15:00 14,5 C 88 % 1022 hPa O-NO 26,1 km/h (4 Bft)
01.07.2006 16:00 14,5 C 88 % 1022 hPa O 23,6 km/h (4 Bft)
01.07.2006 17:00 14,5 C 88 % 1022 hPa NO 25,0 km/h (4 Bft)
01.07.2006 18:00 14,5 C 88 % 1022 hPa O-NO 22,4 km/h (4 Bft)
01.07.2006 19:00 14,5 C 88 % 1022 hPa O 22,4 km/h (4 Bft)
01.07.2006 20:00 14,5 C 88 % 1022 hPa N-NO 17,0 km/h (3 Bft)
01.07.2006 21:00 14,5 C 88 % 1022 hPa NO 15,2 km/h (3 Bft)
01.07.2006 22:00 14,5 C 88 % 1022 hPa N-NO 12,4 km/h (3 Bft)
01.07.2006 23:00 14,5 C 88 % 1022 hPa N-NO 13,4 km/h (3 Bft)
02.07.2006 00:00 14,5 C 88 % 1022 hPa NO 14,2 km/h (3 Bft)
02.07.2006 01:00 14,5 C 88 % 1021 hPa N-NO 10,2 km/h (2 Bft)
02.07.2006 02:00 14,5 C 88 % 1021 hPa N-NO 10,0 km/h (2 Bft)
02.07.2006 03:00 14,5 C 88 % 1021 hPa N-NO 11,7 km/h (2 Bft)
02.07.2006 04:00 14,5 C 88 % 1020 hPa N-NO 9,7 km/h (2 Bft)
02.07.2006 05:00 14,5 C 88 % 1020 hPa N 6,5 km/h (2 Bft)
02.07.2006 06:00 14,5 C 88 % 1020 hPa N 6,6 km/h (2 Bft)
02.07.2006 07:00 14,5 C 88 % 1020 hPa N-NO 10,7 km/h (2 Bft)
02.07.2006 08:00 14,5 C 88 % 1020 hPa NO 16,6 km/h (3 Bft)
02.07.2006 09:00 14,5 C 88 % 1020 hPa O 21,5 km/h (4 Bft)
02.07.2006 10:00 14,5 C 88 % 1020 hPa NO 23,1 km/h (4 Bft)
02.07.2006 11:00 14,5 C 88 % 1020 hPa NO 23,2 km/h (4 Bft)
02.07.2006 12:00 14,5 C 88 % 1020 hPa NO 22,6 km/h (4 Bft)
02.07.2006 13:00 18,0 C 70 % 1020 hPa N-NO 22,8 km/h (4 Bft)
02.07.2006 14:00 25,2 C 35 % 1020 hPa NO 24,5 km/h (4 Bft)
02.07.2006 15:00 25,7 C 33 % 1019 hPa N 21,5 km/h (4 Bft)
02.07.2006 16:00 25,7 C 33 % 1019 hPa NO 23,1 km/h (4 Bft)
02.07.2006 17:00 25,4 C 33 % 1019 hPa NO 22,4 km/h (4 Bft)
02.07.2006 18:00 24,9 C 33 % 1019 hPa NO 22,8 km/h (4 Bft)
02.07.2006 19:00 23,2 C 36 % 1019 hPa O-NO 20,2 km/h (4 Bft)
02.07.2006 20:00 21,4 C 44 % 1019 hPa O-NO 18,5 km/h (3 Bft)
02.07.2006 21:00 19,8 C 50 % 1019 hPa O-NO 13,3 km/h (3 Bft)
02.07.2006 22:00 18,5 C 57 % 1019 hPa NO 12,1 km/h (2 Bft)
02.07.2006 23:00 17,4 C 64 % 1019 hPa N-NO 10,9 km/h (2 Bft)
Min-Datum _ 01.07.06 02.07.06 26.06.06 - 26.06.06
_ Min-Zeit 02:26 14:38 00:00 - 00:29
Minimum _ 14,5 C 33 % 1015 hPa - 0,0 km/h (0 Bft)
Max-Datum _ 26.06.06 26.06.06 30.06.06 - 28.06.06
_ Max-Zeit 17:12 03:21 10:48 - 04:05
Maximum _ 28,1 C 93 % 1024 hPa - 52,4 km/h
W-SW (7 Bft)
Durchschnitt _ 19,3 C 70 % 1020 hPa N-NO 9,0 km/h (2 Bft)

Durchschnitt Minimum Temp.19,1 C
Durchschnitt Maximum Temp.19,6 C